Texas Logo

Irving, TX Single Family Real Estate Listings

404 Total Real Estate Listings * Click on table heading to sort
Date Posted Property Type Style Address Price Living Area Lot Size Price/Sq Ft.
2018-11-27 Single Family 8608 Mill Creek Road Irving, TX 75063 $320,000 1,740 sq. ft. 5,227 sq. ft. $184
2018-11-27 Single Family Traditional 2624 Marta Drive Irving, TX 75060 $185,000 1,529 sq. ft. 6,534 sq. ft. $121
2018-11-27 Single Family Traditional 710 Beacon Hill Drive Irving, TX 75061 $325,000 2,281 sq. ft. 11,326 sq. ft. $142
2018-11-26 Single Family Mediterranean 808 Valencia Boulevard Irving, TX 75039 $599,000 2,783 sq. ft. 6,534 sq. ft. $215
2018-11-25 Single Family 2315 Cambridge Drive Irving, TX 75061 $235,000 2,000 sq. ft. 21,780 sq. ft. $118
2018-11-25 Single Family Traditional 1805 Southstone Lane Irving, TX 75060 $199,000 2,273 sq. ft. 6,970 sq. ft. $88
2018-11-23 Single Family Traditional 822 Canal Street Irving, TX 75063 $274,900 1,659 sq. ft. 2,614 sq. ft. $166
2018-11-23 Single Family Ranch 512 Irby Lane Irving, TX 75061 $245,000 2,000 sq. ft. 15,682 sq. ft. $122
2018-11-23 Single Family Traditional 4001 Rainier Street Irving, TX 75062 $230,000 1,504 sq. ft. 6,970 sq. ft. $153
2018-11-23 Single Family Traditional 315 Stoneledge Irving, TX 75063 $242,000 1,621 sq. ft. 3,920 sq. ft. $149
2018-11-23 Single Family 1036 Blaylock Circle Irving, TX 75061 $245,000 1,907 sq. ft. 13,068 sq. ft. $128
2018-11-23 Single Family Mid-Century Modern 1514 Grauwyler Road Irving, TX 75061 $145,000 1,609 sq. ft. 10,890 sq. ft. $90
2018-11-23 Single Family Traditional 2801 Brockbank Drive Irving, TX 75062 $214,900 1,912 sq. ft. 9,148 sq. ft. $112
2018-11-22 Single Family Traditional 412 Old York Road Irving, TX 75063 $329,000 1,778 sq. ft. 4,792 sq. ft. $185
2018-11-21 Single Family Contemporary/Modern; Mid-Century Modern 1117 Travis Circle Irving, TX 75038 $799,000 4,007 sq. ft. 13,939 sq. ft. $199
2018-11-21 Single Family Traditional 123 Darbonne Lane Irving, TX 75039 $549,990 2,972 sq. ft. 6,970 sq. ft. $185
2018-11-20 Single Family Traditional 410 Little John Drive Irving, TX 75061 $290,000 2,927 sq. ft. 8,712 sq. ft. $99
2018-11-20 Single Family 3511 Bangor Court Irving, TX 75062 $198,000 1,469 sq. ft. 8,276 sq. ft. $135
2018-11-20 Single Family 4016 Conflans Road Irving, TX 75061 $205,000 1,327 sq. ft. 6,970 sq. ft. $154
2018-11-19 Single Family 427 Story Road Irving, TX 75060 $132,000 1,212 sq. ft. 10,454 sq. ft. $109
2018-11-18 Single Family 2629 Castle Street Irving, TX 75038 $325,000 2,232 sq. ft. 11,326 sq. ft. $146
2018-11-16 Single Family Traditional 9100 Jasmine Lane Irving, TX 75063 $425,000 2,759 sq. ft. 8,276 sq. ft. $154
2018-11-16 Single Family 1000 English Street Irving, TX 75061 $349,900 3,538 sq. ft. 9,583 sq. ft. $99
2018-11-16 Single Family Traditional 4020 Conflans Road Irving, TX 75061 $175,000 1,267 sq. ft. 6,534 sq. ft. $138
2018-11-16 Single Family Traditional 229 12th Street Irving, TX 75060 $189,000 1,400 sq. ft. 6,970 sq. ft. $135
2018-11-15 Single Family 1910 Cordova Bend Irving, TX 75060 $214,900 1,588 sq. ft. 6,970 sq. ft. $135
2018-11-15 Single Family Mediterranean; Southwestern; Spanish 617 Fiesta Circle Irving, TX 75063 $319,000 1,632 sq. ft. 6,098 sq. ft. $195
2018-11-15 Single Family Contemporary/Modern 3102 Coronado Street Irving, TX 75062 $400,000 3,440 sq. ft. 12,197 sq. ft. $116
2018-11-15 Single Family Traditional 3636 Carlsbad Way Irving, TX 75063 $460,538 2,171 sq. ft. 3,920 sq. ft. $212
2018-11-15 Single Family Ranch; Traditional 9105 Silverdollar Trail Irving, TX 75063 $325,000 1,974 sq. ft. 6,534 sq. ft. $165
2018-11-15 Single Family 3519 Bangor Court Irving, TX 75062 $329,900 2,815 sq. ft. 7,841 sq. ft. $117
2018-11-15 Single Family 463 Richmond Street Irving, TX 75063 $359,995 2,725 sq. ft. 5,663 sq. ft. $132
2018-11-15 Single Family Ranch 1108 Brookhollow Drive Irving, TX 75061 $243,000 1,718 sq. ft. 7,841 sq. ft. $141
2018-11-14 Single Family Traditional 1703 Etain Road Irving, TX 75060 $239,000 1,834 sq. ft. 6,098 sq. ft. $130
2018-11-14 Single Family Traditional 2801 Fountain Drive Irving, TX 75063 $654,900 3,502 sq. ft. 8,276 sq. ft. $187
2018-11-14 Single Family 7318 Canadian Drive Irving, TX 75039 $434,900 2,226 sq. ft. 7,841 sq. ft. $195
2018-11-13 Single Family 107 Nonesuch Place Irving, TX 75061 $253,000 1,966 sq. ft. 4,792 sq. ft. $129
2018-11-13 Single Family 1303 Beacon Hill Drive Irving, TX 75061 $164,900 1,116 sq. ft. 8,712 sq. ft. $148
2018-11-13 Single Family Traditional 4014 Double Tree Trail Irving, TX 75061 $249,900 2,136 sq. ft. 6,970 sq. ft. $117
2018-11-13 Single Family Traditional 7115 Arches Avenue Irving, TX 75063 $565,000 3,047 sq. ft. 7,841 sq. ft. $185
2018-11-13 Single Family Contemporary/Modern 3609 Sadge Lane Irving, TX 75062 $349,900 2,504 sq. ft. 6,098 sq. ft. $140
2018-11-13 Single Family 214 White Oaks Drive Irving, TX 75060 $165,000 1,500 sq. ft. 6,534 sq. ft. $110
2018-11-12 Single Family Traditional 8128 Dogwood Lane Irving, TX 75063 $355,000 2,676 sq. ft. 4,356 sq. ft. $133
2018-11-12 Single Family Traditional 800 Cheyenne Court Irving, TX 75062 $244,900 1,986 sq. ft. 8,276 sq. ft. $123
2018-11-12 Single Family Traditional 206 Whitham Street Irving, TX 75060 $174,900 1,109 sq. ft. 7,405 sq. ft. $158
2018-11-12 Single Family Traditional 8911 Lakewood Drive Irving, TX 75063 $349,950 2,809 sq. ft. 4,792 sq. ft. $125
2018-11-12 Single Family Mediterranean 4112 Saint Andrews Boulevard Irving, TX 75038 $699,900 3,541 sq. ft. 7,405 sq. ft. $198
2018-11-12 Single Family 2206 10th Street Irving, TX 75060 $200,000 1,315 sq. ft. 6,970 sq. ft. $152
2018-11-10 Single Family 3904 Tally Ho Drive Irving, TX 75062 $899,000 8,225 sq. ft. 19,602 sq. ft. $109
2018-11-09 Single Family A-Frame 1054 Pedernales Trail Irving, TX 75063 $396,000 2,926 sq. ft. 9,583 sq. ft. $135
2018-11-09 Single Family Traditional 2805 Lago Vista Loop Irving, TX 75062 $200,000 2,098 sq. ft. 6,970 sq. ft. $95
2018-11-09 Single Family Traditional Irving, TX $79,900 901 sq. ft. 1,307 sq. ft. $89
2018-11-09 Single Family Traditional 2331 Southern Oak Drive Irving, TX 75063 $479,900 3,028 sq. ft. $158
2018-11-09 Single Family Traditional 532 La Reunion Court Irving, TX 75060 $210,000 1,444 sq. ft. 4,792 sq. ft. $145
2018-11-09 Single Family 917 Colony Ridge Court Irving, TX 75061 $249,900 1,846 sq. ft. 8,276 sq. ft. $135
2018-11-08 Single Family Traditional 6831 Deleon Street Irving, TX 75039 $423,000 2,078 sq. ft. 3,485 sq. ft. $204
2018-11-08 Single Family Traditional 1804 Shumard Oak Lane Irving, TX 75063 $560,000 3,997 sq. ft. 9,148 sq. ft. $140
2018-11-07 Single Family 1600 Skyview Drive Irving, TX 75060 $270,000 2,095 sq. ft. 10,019 sq. ft. $129
2018-11-07 Single Family Traditional 3445 Poinsettia Way Irving, TX 75038 $535,015 3,035 sq. ft. 6,098 sq. ft. $176
2018-11-07 Single Family Ranch 2836 Laramie Street Irving, TX 75062 $149,000 1,646 sq. ft. 7,405 sq. ft. $91
2018-11-07 Single Family Traditional 3609 Yellowstone Court Irving, TX 75062 $190,000 2,120 sq. ft. 7,841 sq. ft. $90
2018-11-06 Single Family Traditional 704 Bowman Street Irving, TX 75060 $294,000 2,335 sq. ft. 29,185 sq. ft. $126
2018-11-06 Single Family Traditional 2513 Dewitt Street Irving, TX 75062 $211,000 1,200 sq. ft. 6,970 sq. ft. $176
2018-11-06 Single Family 513 4th Street Irving, TX 75060 $205,000 1,624 sq. ft. 7,405 sq. ft. $126
2018-11-06 Single Family Traditional 3908 Fox Glen Drive Irving, TX 75062 $749,999 4,145 sq. ft. 18,731 sq. ft. $181
2018-11-05 Single Family Traditional 1244 Tioga Drive Irving, TX 75063 $424,000 3,642 sq. ft. 4,792 sq. ft. $116
2018-11-05 Single Family Ranch; Traditional 2428 Keyhole Street Irving, TX 75062 $283,000 2,289 sq. ft. 10,019 sq. ft. $124
2018-11-05 Single Family Traditional 802 Beacon Hill Drive Irving, TX 75061 $268,000 2,400 sq. ft. 13,068 sq. ft. $112
2018-11-05 Single Family Traditional 7315 Marigold Drive Irving, TX 75063 $629,000 4,990 sq. ft. 12,197 sq. ft. $126
2018-11-05 Single Family Traditional 3353 Garrett Drive Irving, TX 75062 $410,000 2,570 sq. ft. 5,663 sq. ft. $160
2018-11-05 Single Family Traditional 646 Brookstone Drive Irving, TX 75039 $759,000 4,558 sq. ft. 6,098 sq. ft. $167
2018-11-05 Single Family Traditional 2738 Cartwright Street Irving, TX 75062 $155,000 1,099 sq. ft. 7,405 sq. ft. $141
2018-11-05 Single Family Traditional 4862 Cloudcroft Lane Irving, TX 75038 $459,999 2,345 sq. ft. 3,049 sq. ft. $196
2018-11-05 Single Family Contemporary/Modern 3704 Guadalajara Court Irving, TX 75062 $499,000 3,403 sq. ft. 14,375 sq. ft. $147
2018-11-04 Single Family Traditional 9803 Hickory Hollow Lane Irving, TX 75063 $365,900 2,327 sq. ft. 8,276 sq. ft. $157
2018-11-03 Single Family 510 Staffordshire Drive Irving, TX 75061 $195,000 1,455 sq. ft. 10,019 sq. ft. $134
2018-11-03 Single Family 9054 Dillon Trail Irving, TX 75063 $369,900 2,251 sq. ft. 5,663 sq. ft. $164
2018-11-03 Single Family Traditional 2617 Dames Lane Irving, TX 75063 $649,000 3,505 sq. ft. 13,939 sq. ft. $185
2018-11-02 Single Family Traditional 2907 11th Street Irving, TX 75060 $250,000 1,940 sq. ft. 7,841 sq. ft. $129
2018-11-02 Single Family Ranch; Traditional 1544 John Smith Drive Irving, TX 75061 $172,900 1,131 sq. ft. 7,405 sq. ft. $153
2018-11-02 Single Family Traditional 7717 Pine Street Irving, TX 75063 $434,900 2,938 sq. ft. 10,019 sq. ft. $148
2018-11-02 Single Family Mediterranean; Spanish 674 Flagstone Drive Irving, TX 75039 $598,000 2,662 sq. ft. 7,841 sq. ft. $225
2018-11-02 Single Family Traditional 2041 Azalea Trail Irving, TX 75063 $699,000 4,796 sq. ft. 15,682 sq. ft. $146
2018-11-02 Single Family Traditional 300 Cimarron Way Irving, TX 75063 $250,000 1,553 sq. ft. 2,178 sq. ft. $161
2018-11-02 Single Family Traditional 7319 Bradford Pear Drive Irving, TX 75063 $499,999 3,850 sq. ft. 8,712 sq. ft. $130
2018-11-02 Single Family 210 Haley Street Irving, TX 75060 $147,500 1,146 sq. ft. 436 sq. ft. $129
2018-11-02 Single Family 4929 Longwood Court Irving, TX 75038 $289,900 2,026 sq. ft. 8,276 sq. ft. $143
2018-11-02 Single Family Mediterranean 814 Redondo Irving, TX 75039 $599,900 3,829 sq. ft. 5,663 sq. ft. $157
2018-11-02 Single Family Traditional 702 Oakwood Drive Irving, TX 75061 $274,900 1,846 sq. ft. 15,682 sq. ft. $149
2018-11-01 Single Family Traditional 3221 Thames Street Irving, TX 75062 $195,000 1,646 sq. ft. 8,276 sq. ft. $118
2018-11-01 Single Family Traditional 2218 11th Street Irving, TX 75060 $193,000 1,650 sq. ft. 6,970 sq. ft. $117
2018-11-01 Single Family Traditional 3604 Hathaway Court Irving, TX 75062 $479,000 3,152 sq. ft. 6,098 sq. ft. $152
2018-11-01 Single Family Ranch 1346 Carriage Drive Irving, TX 75062 $195,000 1,914 sq. ft. 10,890 sq. ft. $102
2018-11-01 Single Family Traditional 3608 Chime Place Irving, TX 75062 $184,900 1,541 sq. ft. 9,583 sq. ft. $120
2018-11-01 Single Family Traditional 1524 Canyon Oaks Drive Irving, TX 75061 $315,000 2,905 sq. ft. 13,504 sq. ft. $108
2018-11-01 Single Family Traditional 2024 Robinson Street Irving, TX 75060 $214,900 1,810 sq. ft. 8,276 sq. ft. $119
2018-11-01 Single Family Traditional 1127 Indy Court Irving, TX 75060 $300,000 2,390 sq. ft. 8,712 sq. ft. $126
2018-10-31 Single Family 1716 John Smith Drive Irving, TX 75061 $180,000 1,935 sq. ft. 7,405 sq. ft. $93
2018-10-31 Single Family 2522 Cartwright Street Irving, TX 75062 $239,950 1,732 sq. ft. 10,454 sq. ft. $139
2018-10-30 Single Family 3803 Double Oak Lane Irving, TX 75061 $239,900 2,022 sq. ft. 9,148 sq. ft. $119
2018-10-30 Single Family 2413 Rutherford Street Irving, TX 75062 $150,000 1,826 sq. ft. 8,276 sq. ft. $82
2018-10-30 Single Family 1822 Waldrop Street Irving, TX 75061 $185,000 1,035 sq. ft. 7,841 sq. ft. $179
2018-10-29 Single Family Traditional 3435 Thrush Drive Irving, TX 75062 $229,000 1,164 sq. ft. 6,970 sq. ft. $197
2018-10-28 Single Family Traditional 521 Charles Drive Irving, TX 75060 $169,900 2,202 sq. ft. 11,326 sq. ft. $77
2018-10-26 Single Family 1205 Irving Heights Drive Irving, TX 75061 $349,000 3,103 sq. ft. 30,056 sq. ft. $112
2018-10-26 Single Family Traditional 520 Kingston Drive Irving, TX 75061 $275,000 2,035 sq. ft. 13,939 sq. ft. $135
2018-10-26 Single Family 1401 Finley Road Irving, TX 75062 $187,500 1,477 sq. ft. 7,405 sq. ft. $127
2018-10-26 Single Family Traditional 7007 Nueces Drive Irving, TX 75039 $399,000 1,793 sq. ft. 4,792 sq. ft. $223
2018-10-26 Single Family 2301 Chandelle Drive Irving, TX 75060 $199,900 1,311 sq. ft. 6,534 sq. ft. $152
2018-10-26 Single Family Traditional 1436 Santa Anita Boulevard Irving, TX 75060 $350,000 3,303 sq. ft. 6,098 sq. ft. $106
2018-10-26 Single Family Traditional 6333 Saddlebrook Way Irving, TX 75039 $548,653 3,289 sq. ft. 4,356 sq. ft. $167
2018-10-26 Single Family Traditional 6338 Saddlebrook Way Irving, TX 75039 $533,532 2,703 sq. ft. 4,356 sq. ft. $197
2018-10-25 Single Family Traditional 3817 Rainier Street Irving, TX 75062 $219,900 1,652 sq. ft. 7,405 sq. ft. $133
2018-10-25 Single Family Traditional 4743 Byron Circle Irving, TX 75038 $789,900 3,452 sq. ft. 9,583 sq. ft. $229
2018-10-25 Single Family Traditional 414 San Marcos Drive Irving, TX 75039 $539,999 3,727 sq. ft. 7,405 sq. ft. $145
2018-10-25 Single Family Traditional 3201 Thames Street Irving, TX 75062 $199,000 1,197 sq. ft. 11,761 sq. ft. $166
2018-10-25 Single Family Traditional 2249 Bolden Road Irving, TX 75060 $299,900 2,204 sq. ft. 16,553 sq. ft. $136
2018-10-25 Single Family 1301 Etain Road Irving, TX 75060 $209,900 1,721 sq. ft. 8,712 sq. ft. $122
2018-10-24 Single Family 2626 Chevy Chase Drive Irving, TX 75062 $259,700 2,349 sq. ft. 7,405 sq. ft. $111
2018-10-23 Single Family Traditional 2712 Bridge Lake Drive Irving, TX 75060 $215,000 1,542 sq. ft. 4,356 sq. ft. $139
2018-10-23 Single Family 314 Moss Hill Road Irving, TX 75063 $359,900 2,005 sq. ft. 3,920 sq. ft. $180
2018-10-22 Single Family Traditional 1916 Canterbury Street Irving, TX 75062 $186,000 1,292 sq. ft. 7,841 sq. ft. $144
2018-10-22 Single Family Traditional 517 Mimosa Street Irving, TX 75061 $329,900 2,185 sq. ft. 5,663 sq. ft. $151
2018-10-22 Single Family 1508 Upton Irving, TX 75060 $219,000 1,643 sq. ft. 21,780 sq. ft. $133
2018-10-22 Single Family 2718 Stafford Street Irving, TX 75062 $199,000 1,360 sq. ft. 6,970 sq. ft. $146
2018-10-20 Single Family 7472 Reverchon Irving, TX 75063 $624,990 3,165 sq. ft. 5,663 sq. ft. $197
2018-10-20 Single Family 500 Mccoy Drive Irving, TX 75062 $375,000 2,458 sq. ft. 11,326 sq. ft. $153
2018-10-20 Single Family 408 Cimarron Trail Irving, TX 75063 $248,200 1,565 sq. ft. 4,356 sq. ft. $159
2018-10-20 Single Family Traditional 500 Taos Trail Irving, TX 75063 $227,500 1,268 sq. ft. 2,614 sq. ft. $179
2018-10-20 Single Family Traditional 2500 Lasalle Drive Irving, TX 75062 $185,000 1,262 sq. ft. 8,276 sq. ft. $147
2018-10-19 Single Family Mediterranean 1220 Travis Circle Irving, TX 75038 $650,000 3,996 sq. ft. 11,326 sq. ft. $163
2018-10-19 Single Family Traditional 7705 Shumard Circle Irving, TX 75063 $555,000 4,146 sq. ft. 12,632 sq. ft. $134
2018-10-19 Single Family Traditional 1908 Crockett Circle Irving, TX 75038 $497,000 3,015 sq. ft. 8,276 sq. ft. $165
2018-10-19 Single Family Traditional 2417 Markland Street Irving, TX 75060 $180,000 1,212 sq. ft. 4,356 sq. ft. $149
2018-10-19 Single Family A-Frame; Split Level; Traditional 10311 Perkins Drive Irving, TX 75063 $385,000 2,677 sq. ft. 7,841 sq. ft. $144
2018-10-18 Single Family Contemporary/Modern 625 Knight Lane Irving, TX 75060 $249,900 1,730 sq. ft. 4,792 sq. ft. $144
2018-10-17 Single Family Spanish 6438 San Saba Irving, TX 75039 $649,000 3,332 sq. ft. 6,534 sq. ft. $195
2018-10-17 Single Family Mid-Century Modern 617 Van Horn Drive Irving, TX 75060 $299,000 2,003 sq. ft. 10,454 sq. ft. $149
2018-10-17 Single Family 1020 Hickory Street Irving, TX 75060 $205,000 1,581 sq. ft. 9,583 sq. ft. $130
2018-10-17 Single Family 3020 Pritchett Drive Irving, TX 75061 $169,900 1,379 sq. ft. 9,583 sq. ft. $123
2018-10-16 Single Family 3775 Country Club Road Irving, TX 75038 $375,000 3,195 sq. ft. 10,019 sq. ft. $117
2018-10-16 Single Family Traditional 3560 Hathaway Court Irving, TX 75062 $411,190 1,946 sq. ft. 5,663 sq. ft. $211
2018-10-15 Single Family 1013 Old Mill Circle Irving, TX 75061 $259,900 1,864 sq. ft. 10,019 sq. ft. $139
2018-10-12 Single Family Mediterranean 4504 Redwood Court Irving, TX 75038 $850,000 4,439 sq. ft. 23,958 sq. ft. $191
2018-10-12 Single Family 517 Mccoy Drive Irving, TX 75062 $385,000 3,175 sq. ft. 10,890 sq. ft. $121
2018-10-12 Single Family Traditional 2510 Waterford Drive Irving, TX 75063 $469,900 3,062 sq. ft. 5,227 sq. ft. $153
2018-10-12 Single Family Traditional 10207 Donley Drive Irving, TX 75063 $357,000 2,358 sq. ft. 6,970 sq. ft. $151
2018-10-12 Single Family 400 Pecos Trail Irving, TX 75063 $319,500 2,227 sq. ft. 3,920 sq. ft. $143
2018-10-12 Single Family Mediterranean 3310 University Park Irving, TX 75062 $499,900 3,630 sq. ft. 4,792 sq. ft. $138
2018-10-12 Single Family Traditional 3434 Wingren Drive Irving, TX 75062 $689,900 4,867 sq. ft. 12,197 sq. ft. $142
2018-10-11 Single Family Spanish 217 Steeplechase Drive Irving, TX 75062 $1,400,000 4,848 sq. ft. 10,019 sq. ft. $289
2018-10-11 Single Family Traditional 4020 Flintridge Drive Irving, TX 75038 $299,900 2,034 sq. ft. 10,454 sq. ft. $147
2018-10-11 Single Family Traditional 1600 Dowling Drive Irving, TX 75038 $799,990 4,578 sq. ft. 17,424 sq. ft. $175
2018-10-11 Single Family Mediterranean; Traditional 6443 San Saba Irving, TX 75039 $450,000 2,451 sq. ft. 4,356 sq. ft. $184
2018-10-11 Single Family Ranch 1202 Marlynn Street Irving, TX 75061 $150,000 1,343 sq. ft. 11,326 sq. ft. $112
2018-10-11 Single Family 1810 Rindie Street Irving, TX 75060 $173,900 1,657 sq. ft. 9,583 sq. ft. $105
2018-10-11 Single Family Traditional 154 Rolling Fork Bend Irving, TX 75039 $489,900 3,340 sq. ft. 5,663 sq. ft. $147
2018-10-10 Single Family Contemporary/Modern 1100 Travis Circle Irving, TX 75038 $775,000 5,322 sq. ft. 19,602 sq. ft. $146
2018-10-10 Single Family 1009 Rochelle Boulevard Irving, TX 75062 $399,000 3,463 sq. ft. 16,553 sq. ft. $115
2018-10-10 Single Family Traditional 3010 Ivy Hill Irving, TX 75063 $485,000 3,180 sq. ft. 6,098 sq. ft. $153
2018-10-10 Single Family Traditional 1326 English Street Irving, TX 75061 $284,999 2,052 sq. ft. 17,860 sq. ft. $139
2018-10-10 Single Family 308 Ouida Road Irving, TX 75061 $265,000 1,664 sq. ft. 5,663 sq. ft. $159
2018-10-10 Single Family Traditional 1214 Lakeridge Lane Irving, TX 75063 $556,000 3,978 sq. ft. 9,148 sq. ft. $140
2018-10-09 Single Family Traditional 1918 Puritan Irving, TX 75061 $210,000 1,520 sq. ft. 11,326 sq. ft. $138
2018-10-09 Single Family Traditional 2711 Tudor Lane Irving, TX 75060 $299,499 1,907 sq. ft. 6,534 sq. ft. $157
2018-10-09 Single Family Contemporary/Modern; Mediterranean 4323 Saint Andrews Boulevard Irving, TX 75038 $1,035,000 3,671 sq. ft. 6,970 sq. ft. $282
2018-10-09 Single Family Traditional 108 Woodland Drive Irving, TX 75060 $205,000 1,449 sq. ft. 24,829 sq. ft. $141
2018-10-09 Single Family Traditional 7408 Kensington Irving, TX 75063 $676,594 3,165 sq. ft. 2,178 sq. ft. $214
2018-10-08 Single Family Traditional 1817 Parkside Avenue Irving, TX 75061 $120,000 1,024 sq. ft. 9,148 sq. ft. $117
2018-10-07 Single Family Traditional 326 San Carlos Court Irving, TX 75062 $325,000 2,913 sq. ft. 18,295 sq. ft. $112
2018-10-07 Single Family 1428 Abbott Drive Irving, TX 75060 $135,000 1,248 sq. ft. 7,405 sq. ft. $108
2018-10-06 Single Family 710 Lexington Drive Irving, TX 75061 $259,000 1,842 sq. ft. 11,326 sq. ft. $141
2018-10-06 Single Family Traditional 3825 Finley Road Irving, TX 75062 $185,000 1,232 sq. ft. 6,970 sq. ft. $150
2018-10-06 Single Family Colonial 1501 Bonham Court Irving, TX 75038 $575,000 3,290 sq. ft. 16,988 sq. ft. $175
2018-10-06 Single Family Traditional 2012 Plymouth Drive Irving, TX 75061 $224,900 1,459 sq. ft. 7,405 sq. ft. $154
2018-10-05 Single Family Traditional 2421 Mcclure Street Irving, TX 75062 $214,999 1,416 sq. ft. 16,553 sq. ft. $152
2018-10-05 Single Family Traditional 7900 Pimlico Lane Irving, TX 75063 $539,900 2,945 sq. ft. 4,792 sq. ft. $183
2018-10-05 Single Family 7480 Reverchon Drive Irving, TX 75063 $645,999 3,390 sq. ft. 21,780 sq. ft. $191
2018-10-05 Single Family Ranch; Traditional 1513 Green Oaks Drive Irving, TX 75061 $250,000 2,629 sq. ft. 10,454 sq. ft. $95
2018-10-05 Single Family Ranch 500 Lincolnshire Drive Irving, TX 75061 $305,750 2,779 sq. ft. 19,166 sq. ft. $110
2018-10-05 Single Family Traditional 8615 Old Oak Drive Irving, TX 75063 $334,000 1,587 sq. ft. 3,920 sq. ft. $210
2018-10-04 Single Family Mediterranean 4528 Redwood Court Irving, TX 75038 $675,000 4,130 sq. ft. 9,583 sq. ft. $163
2018-10-03 Single Family 444 Richmond Street Irving, TX 75063 $335,000 2,347 sq. ft. 3,920 sq. ft. $143
2018-10-03 Single Family Mediterranean; Traditional 5731 Waterview Drive Irving, TX 75039 $835,000 3,558 sq. ft. 6,534 sq. ft. $235
2018-10-03 Single Family Traditional 1333 Marina Drive Irving, TX 75063 $540,000 3,698 sq. ft. 6,534 sq. ft. $146
2018-10-02 Single Family Traditional 439 Richmond Street Irving, TX 75063 $352,000 2,407 sq. ft. 4,356 sq. ft. $146
2018-10-02 Single Family 1936 Briarwood Lane Irving, TX 75061 $239,500 2,272 sq. ft. 11,761 sq. ft. $105
2018-10-01 Single Family Traditional 1717 Dowling Drive Irving, TX 75038 $715,000 4,097 sq. ft. 17,424 sq. ft. $175
2018-10-01 Single Family 2517 Catalina Way Irving, TX 75060 $179,900 1,950 sq. ft. 6,098 sq. ft. $92
2018-09-30 Single Family 6858 Sonoma Irving, TX 75039 $608,000 3,528 sq. ft. 6,534 sq. ft. $172
2018-09-28 Single Family 103 Ranch Trail Irving, TX 75063 $420,000 2,562 sq. ft. 4,792 sq. ft. $164
2018-09-28 Single Family Traditional 2502 Waterford Drive Irving, TX 75063 $405,000 2,219 sq. ft. 6,098 sq. ft. $183
2018-09-28 Single Family Traditional 5130 Montego Bay Drive Irving, TX 75038 $391,000 2,427 sq. ft. 4,356 sq. ft. $161
2018-09-28 Single Family Traditional 5218 Montego Bay Drive Irving, TX 75038 $389,000 2,474 sq. ft. 4,356 sq. ft. $157
2018-09-28 Single Family Mediterranean 647 Lake Point Drive Irving, TX 75039 $1,139,000 5,654 sq. ft. 12,632 sq. ft. $201
2018-09-28 Single Family Mediterranean; Spanish 7047 Nueces Drive Irving, TX 75039 $449,900 2,747 sq. ft. 4,792 sq. ft. $164
2018-09-28 Single Family Colonial 1109 Travis Circle Irving, TX 75038 $675,000 3,441 sq. ft. 14,375 sq. ft. $196
2018-09-28 Single Family Traditional 4920 Dominion Boulevard Irving, TX 75038 $429,000 3,034 sq. ft. 4,792 sq. ft. $141
2018-09-27 Single Family Traditional 200 Taos Trail Irving, TX 75063 $249,900 1,630 sq. ft. 2,614 sq. ft. $153
2018-09-27 Single Family 100 Brushwood Drive Irving, TX 75063 $374,750 2,426 sq. ft. 8,712 sq. ft. $154
2018-09-27 Single Family Ranch 3206 Ridgeway Street Irving, TX 75062 $209,000 1,962 sq. ft. 8,712 sq. ft. $107
2018-09-27 Single Family Traditional 8628 Mill Creek Road Irving, TX 75063 $350,000 2,306 sq. ft. 5,227 sq. ft. $152
2018-09-27 Single Family 2705 Dewitt Street Irving, TX 75062 $199,999 1,402 sq. ft. 6,970 sq. ft. $143
2018-09-27 Single Family 4134 Victoria Street Irving, TX 75062 $240,000 1,492 sq. ft. 7,841 sq. ft. $161
2018-09-26 Single Family 404 Sheridan Trail Irving, TX 75063 $315,000 2,046 sq. ft. 4,356 sq. ft. $154
2018-09-26 Single Family Traditional 3640 Carlsbad Way Irving, TX 75063 $519,565 3,170 sq. ft. 3,920 sq. ft. $164
2018-09-25 Single Family Traditional 1537 Alden Street Irving, TX 75061 $189,000 1,061 sq. ft. 10,019 sq. ft. $178
2018-09-25 Single Family 1307 Belt Line Road Irving, TX 75061 $595,000 1,660 sq. ft. 35,719 sq. ft. $358
2018-09-25 Single Family Traditional 145 Erling Lane Irving, TX 75039 $664,500 3,984 sq. ft. 6,970 sq. ft. $167
2018-09-24 Single Family 306 Northgate Drive Irving, TX 75062 $284,895 1,837 sq. ft. 7,405 sq. ft. $155
2018-09-24 Single Family Traditional 1513 Canyon Oaks Drive Irving, TX 75061 $479,000 4,500 sq. ft. 16,988 sq. ft. $106
2018-09-24 Single Family English; Traditional 1201 Cottonwood Valley Drive Irving, TX 75038 $630,000 3,992 sq. ft. 17,424 sq. ft. $158
2018-09-23 Single Family Contemporary/Modern; French; Mediterranean; Traditional 4611 Byron Circle Irving, TX 75038 $1,125,000 4,369 sq. ft. 10,019 sq. ft. $258
2018-09-22 Single Family Traditional 10114 Andre Drive Irving, TX 75063 $318,000 2,114 sq. ft. 8,276 sq. ft. $150
2018-09-22 Single Family Traditional 1617 Drexel Drive Irving, TX 75061 $264,900 2,391 sq. ft. 7,405 sq. ft. $111
2018-09-21 Single Family Traditional 318 Touchdown Drive Irving, TX 75063 $315,000 1,831 sq. ft. 5,227 sq. ft. $172
2018-09-21 Single Family Traditional 2015 Remington Drive Irving, TX 75063 $529,900 2,772 sq. ft. 4,792 sq. ft. $191
2018-09-21 Single Family 1400 Katy Drive Irving, TX 75061 $329,999 2,368 sq. ft. 8,712 sq. ft. $139
2018-09-20 Single Family Traditional 1409 Valley Trail Irving, TX 75063 $385,000 2,246 sq. ft. 6,970 sq. ft. $171
2018-09-20 Single Family Traditional 501 Rustic Court Irving, TX 75060 $165,000 1,069 sq. ft. 7,405 sq. ft. $154
2018-09-20 Single Family Mediterranean; Spanish 1709 Cottonwood Valley Circle Irving, TX 75038 $1,275,000 5,617 sq. ft. 16,117 sq. ft. $227
2018-09-20 Single Family Traditional 1907 Livingston Road Irving, TX 75062 $393,869 1,725 sq. ft. 5,227 sq. ft. $228
2018-09-20 Single Family Traditional 1911 Livingston Road Irving, TX 75062 $414,654 2,398 sq. ft. 5,227 sq. ft. $173
2018-09-20 Single Family Mediterranean 6701 Castillo Street Irving, TX 75039 $589,900 3,325 sq. ft. 9,148 sq. ft. $177
2018-09-19 Single Family Traditional 3908 Country Club Drive Irving, TX 75038 $289,900 2,210 sq. ft. 9,583 sq. ft. $131
2018-09-19 Single Family 103 Dorsett Drive Irving, TX 75063 $345,000 2,114 sq. ft. 6,970 sq. ft. $163
2018-09-19 Single Family Contemporary/Modern 1119 Backbay Drive Irving, TX 75063 $649,000 3,775 sq. ft. 6,098 sq. ft. $172
2018-09-19 Single Family Traditional 10015 White Lane Irving, TX 75063 $364,000 2,254 sq. ft. 6,534 sq. ft. $161
2018-09-19 Single Family Mid-Century Modern 623 Ridgecrest Drive Irving, TX 75060 $217,900 1,412 sq. ft. 13,068 sq. ft. $154
2018-09-17 Single Family Traditional 6947 Birch Creek Drive Irving, TX 75063 $457,841 2,171 sq. ft. 3,920 sq. ft. $211
2018-09-15 Single Family Contemporary/Modern; Mediterranean 4561 Byron Circle Irving, TX 75038 $1,550,000 5,567 sq. ft. 13,939 sq. ft. $278
2018-09-15 Single Family Mediterranean 775 Laguna Irving, TX 75039 $599,000 4,056 sq. ft. 8,276 sq. ft. $148
2018-09-15 Single Family Ranch 2515 Glacier Street Irving, TX 75062 $248,000 1,885 sq. ft. 6,970 sq. ft. $132
2018-09-15 Single Family Traditional 2117 Etain Road Irving, TX 75060 $198,000 1,574 sq. ft. 6,534 sq. ft. $126
2018-09-15 Single Family 3111 Ivy Hill Lane Irving, TX 75063 $436,000 2,333 sq. ft. 4,792 sq. ft. $187
2018-09-14 Single Family Mediterranean; Spanish 771 Laguna Irving, TX 75039 $474,500 2,874 sq. ft. 4,356 sq. ft. $165
2018-09-14 Single Family Traditional 210 Steeplechase Drive Irving, TX 75062 $1,250,000 7,721 sq. ft. 26,572 sq. ft. $162
2018-09-14 Single Family 2913 Pacific Court Irving, TX 75062 $525,000 3,800 sq. ft. 7,405 sq. ft. $138
2018-09-14 Single Family Irving, TX $319,900 1,998 sq. ft. 11,761 sq. ft. $160
2018-09-13 Single Family 1939 Pilgrim Drive Irving, TX 75061 $199,900 1,462 sq. ft. 8,276 sq. ft. $137
2018-09-12 Single Family Traditional 7310 Native Oak Lane Irving, TX 75063 $599,990 4,132 sq. ft. 9,148 sq. ft. $145
2018-09-12 Single Family Ranch 2517 Briarcliff Drive Irving, TX 75062 $219,900 1,491 sq. ft. 7,405 sq. ft. $147
2018-09-12 Single Family 4013 Tacoma Street Irving, TX 75062 $199,000 1,705 sq. ft. 8,712 sq. ft. $117
2018-09-11 Single Family Traditional 4163 Napoli Way Irving, TX 75038 $449,900 3,021 sq. ft. 5,663 sq. ft. $149
2018-09-10 Single Family Traditional 156 Erling Lane Irving, TX 75039 $779,990 3,815 sq. ft. 6,970 sq. ft. $204
2018-09-08 Single Family Contemporary/Modern 621 Knight Lane Irving, TX 75060 $259,900 1,730 sq. ft. $150
2018-09-08 Single Family Mediterranean 224 Concho Drive Irving, TX 75039 $459,000 2,505 sq. ft. 4,792 sq. ft. $183
2018-09-07 Single Family Traditional 1504 Weathered Street Irving, TX 75062 $229,000 2,033 sq. ft. 8,276 sq. ft. $113
2018-09-07 Single Family Contemporary/Modern; Traditional 1603 Nelson Drive Irving, TX 75038 $682,000 4,227 sq. ft. 13,939 sq. ft. $161
2018-09-07 Single Family 2709 Douglas Avenue Irving, TX 75062 $242,000 2,707 sq. ft. 8,712 sq. ft. $89
2018-09-07 Single Family 201 Landry Court Irving, TX 75063 $339,900 2,130 sq. ft. 6,970 sq. ft. $160
2018-09-07 Single Family Contemporary/Modern; Split Level 207 Skystone Drive Irving, TX 75038 $500,000 2,591 sq. ft. 3,049 sq. ft. $193
2018-09-07 Single Family Mediterranean; Traditional 819 Redondo Irving, TX 75039 $515,000 3,401 sq. ft. 5,663 sq. ft. $151
2018-09-07 Single Family Traditional 2009 Primrose Drive Irving, TX 75063 $610,000 3,463 sq. ft. 9,583 sq. ft. $176
2018-09-06 Single Family 1928 Etain Road Irving, TX 75060 $199,000 1,664 sq. ft. 4,792 sq. ft. $120
2018-09-06 Single Family Traditional 2028 Remington Drive Irving, TX 75063 $559,900 3,429 sq. ft. 5,227 sq. ft. $163
2018-09-06 Single Family Ranch 616 San Juan Court Irving, TX 75062 $525,000 3,662 sq. ft. 17,860 sq. ft. $143
2018-09-05 Single Family Traditional 10214 Waters Drive Irving, TX 75063 $323,000 1,841 sq. ft. 6,970 sq. ft. $175
2018-09-05 Single Family Traditional 1805 Driskill Drive Irving, TX 75038 $700,000 4,084 sq. ft. 14,375 sq. ft. $171
2018-09-04 Single Family Traditional 9607 Wolf Creek Drive Irving, TX 75063 $399,900 2,858 sq. ft. 8,276 sq. ft. $140
2018-09-04 Single Family Contemporary/Modern 4765 Cloudcroft Lane Irving, TX 75038 $1,024,900 3,681 sq. ft. 3,920 sq. ft. $278
2018-09-02 Single Family Traditional 7424 Reverchon Drive Irving, TX 75063 $638,990 3,165 sq. ft. 2,178 sq. ft. $202
2018-09-01 Single Family Traditional 7729 Sumac Road Irving, TX 75063 $445,000 3,950 sq. ft. 6,970 sq. ft. $113
2018-08-31 Single Family Traditional 4123 Buckner Avenue Irving, TX 75063 $689,879 3,446 sq. ft. 2,178 sq. ft. $200
2018-08-31 Single Family 4147 Buckner Avenue Irving, TX 75063 $700,230 3,915 sq. ft. 2,178 sq. ft. $179
2018-08-31 Single Family Traditional 7525 Sweetgum Drive Irving, TX 75063 $439,000 3,355 sq. ft. 8,712 sq. ft. $131
2018-08-31 Single Family Traditional 2600 Yorkshire Street Irving, TX 75061 $259,000 2,542 sq. ft. 11,761 sq. ft. $102
2018-08-30 Single Family Traditional 1712 Cripple Creek Drive Irving, TX 75061 $375,000 3,139 sq. ft. 13,068 sq. ft. $119
2018-08-29 Single Family Traditional 8513 Wellington Point Drive Irving, TX 75063 $345,000 2,636 sq. ft. 5,227 sq. ft. $131
2018-08-27 Single Family Traditional 6848 Prompton Bend Irving, TX 75063 $399,990 2,171 sq. ft. 3,920 sq. ft. $184
2018-08-27 Single Family 2708 Bridge Lake Drive Irving, TX 75060 $150,000 1,376 sq. ft. 4,356 sq. ft. $109
2018-08-24 Single Family Traditional 2923 Waterford Drive Irving, TX 75063 $379,900 2,962 sq. ft. 5,227 sq. ft. $128
2018-08-24 Single Family Mid-Century Modern 911 Lane Street Irving, TX 75061 $329,999 3,110 sq. ft. 12,197 sq. ft. $106
2018-08-24 Single Family Traditional 2408 Clearspring Drive Irving, TX 75063 $510,000 3,129 sq. ft. 9,583 sq. ft. $163
2018-08-24 Single Family Traditional 4856 Isleworth Drive Irving, TX 75038 $478,000 2,259 sq. ft. 3,049 sq. ft. $212
2018-08-23 Single Family 2416 Roger Williams Drive Irving, TX 75061 $249,900 2,400 sq. ft. 8,276 sq. ft. $104
2018-08-23 Single Family Traditional 4309 Fannin Drive Irving, TX 75038 $584,000 3,458 sq. ft. 13,939 sq. ft. $169
2018-08-23 Single Family Traditional 9350 Riverwalk Lane Irving, TX 75063 $390,000 2,386 sq. ft. 15,246 sq. ft. $163
2018-08-20 Single Family Mediterranean 4208 Saint Andrews Boulevard Irving, TX 75038 $932,000 4,235 sq. ft. 7,405 sq. ft. $220
2018-08-19 Single Family Mediterranean 7021 Arches Avenue Irving, TX 75063 $849,000 4,160 sq. ft. 8,276 sq. ft. $204
2018-08-17 Single Family Mediterranean; Southwestern; Spanish 616 Fiesta Circle Irving, TX 75063 $329,000 1,765 sq. ft. 6,534 sq. ft. $186
2018-08-16 Single Family Traditional 7400 Sugar Maple Drive Irving, TX 75063 $534,999 3,940 sq. ft. 12,197 sq. ft. $136
2018-08-16 Single Family Traditional 2405 Harvard Street Irving, TX 75062 $209,999 1,325 sq. ft. 8,276 sq. ft. $158
2018-08-16 Single Family Traditional 7243 Notre Dame Drive Irving, TX 75063 $699,900 3,538 sq. ft. 5,663 sq. ft. $198
2018-08-16 Single Family 739 Laguna Irving, TX 75039 $510,000 3,122 sq. ft. 4,356 sq. ft. $163
2018-08-15 Single Family 714 San Benito Irving, TX 75039 $569,000 3,327 sq. ft. 6,098 sq. ft. $171
2018-08-15 Single Family Mediterranean 6909 Sonoma Irving, TX 75039 $580,000 4,015 sq. ft. 6,534 sq. ft. $144
2018-08-15 Single Family Traditional 401 Juniper Lane Irving, TX 75039 $499,900 3,056 sq. ft. 6,534 sq. ft. $164
2018-08-13 Single Family 3202 Cortez Court Irving, TX 75062 $459,900 3,616 sq. ft. 13,939 sq. ft. $127
2018-08-12 Single Family 500 White Sands Trail Irving, TX 75063 $325,000 1,887 sq. ft. 6,098 sq. ft. $172
2018-08-10 Single Family Mediterranean 841 Terraza Irving, TX 75039 $499,900 3,793 sq. ft. 5,663 sq. ft. $132
2018-08-10 Single Family 221 Moss Hill Road Irving, TX 75063 $334,900 2,010 sq. ft. 3,920 sq. ft. $167
2018-08-10 Single Family Contemporary/Modern 10111 Carano Court Irving, TX 75063 $365,000 2,114 sq. ft. 9,148 sq. ft. $173
2018-08-09 Single Family Contemporary/Modern 5029 Province Place Irving, TX 75038 $439,900 3,353 sq. ft. 6,970 sq. ft. $131
2018-08-09 Single Family Traditional 700 Irving Heights Drive Irving, TX 75061 $379,500 2,650 sq. ft. 8,712 sq. ft. $143
2018-08-08 Single Family Traditional 2302 Pistachio Drive Irving, TX 75063 $559,900 3,934 sq. ft. 8,276 sq. ft. $142
2018-08-07 Single Family Traditional 1002 Glencrest Court Irving, TX 75061 $279,000 2,123 sq. ft. 14,375 sq. ft. $131
2018-08-07 Single Family Traditional 2040 Remington Drive Irving, TX 75063 $591,900 3,614 sq. ft. 5,227 sq. ft. $164
2018-08-07 Single Family Traditional 3213 Kathy Lane Irving, TX 75060 $217,000 1,540 sq. ft. 6,970 sq. ft. $141
2018-08-05 Single Family Traditional 3322 Chandler Court Irving, TX 75060 $299,900 2,218 sq. ft. 8,712 sq. ft. $135
2018-08-03 Single Family Traditional 1502 4th Street Irving, TX 75060 $269,000 2,610 sq. ft. 15,682 sq. ft. $103
2018-08-03 Single Family Traditional 3124 Trent Street Irving, TX 75061 $302,595 2,218 sq. ft. 11,761 sq. ft. $136
2018-08-03 Single Family Traditional 2705 Tudor Lane Irving, TX 75060 $299,500 1,907 sq. ft. 6,534 sq. ft. $157
2018-08-03 Single Family Traditional 149 Erling Lane Irving, TX 75039 $599,990 3,472 sq. ft. 8,712 sq. ft. $173
2018-08-01 Single Family Traditional 1620 Wahl Street Irving, TX 75060 $250,895 2,382 sq. ft. 10,454 sq. ft. $105
2018-08-01 Single Family Traditional 523 Paddock Way Irving, TX 75039 $486,272 2,345 sq. ft. 4,356 sq. ft. $207
2018-08-01 Single Family 302 Maltby Road Irving, TX 75061 $322,000 2,425 sq. ft. 12,632 sq. ft. $133
2018-07-31 Single Family Traditional 3647 Crosby Street Irving, TX 75038 $359,000 1,626 sq. ft. 4,356 sq. ft. $221
2018-07-31 Single Family Traditional 5123 Montego Bay Drive Irving, TX 75038 $389,000 2,472 sq. ft. 4,356 sq. ft. $157
2018-07-29 Single Family Ranch 3318 Cheyenne Street Irving, TX 75062 $232,900 2,217 sq. ft. 7,841 sq. ft. $105
2018-07-28 Single Family 1111 Hilltop Drive Irving, TX 75060 $300,000 1,813 sq. ft. 45,302 sq. ft. $165
2018-07-27 Single Family English; Tudor 1806 Cottonwood Valley Circle Irving, TX 75038 $725,000 4,780 sq. ft. 17,424 sq. ft. $152
2018-07-26 Single Family Traditional 7851 Southfork Bend Irving, TX 75063 $585,000 3,922 sq. ft. 7,405 sq. ft. $149
2018-07-23 Single Family Traditional 5112 Soren Street Irving, TX 75038 $389,000 2,474 sq. ft. 4,356 sq. ft. $157
2018-07-22 Single Family Traditional 4150 Napoli Way Irving, TX 75038 $449,900 3,172 sq. ft. 5,663 sq. ft. $142
2018-07-22 Single Family 1826 Morgan Street Irving, TX 75062 $279,000 1,483 sq. ft. 8,712 sq. ft. $188
2018-07-21 Single Family Traditional 6883 Sonoma Irving, TX 75039 $495,000 2,837 sq. ft. 6,098 sq. ft. $174
2018-07-21 Single Family Traditional 1405 Atlanta Drive Irving, TX 75062 $239,900 2,366 sq. ft. 8,276 sq. ft. $101
2018-07-21 Single Family Traditional 7217 Summitview Drive Irving, TX 75063 $393,500 2,655 sq. ft. 20,909 sq. ft. $148
2018-07-20 Single Family Traditional 2313 Creekside Circle Irving, TX 75063 $490,000 3,339 sq. ft. 9,148 sq. ft. $147
2018-07-20 Single Family A-Frame 4741 Harlow Bend Drive Irving, TX 75038 $650,000 3,447 sq. ft. 6,970 sq. ft. $189
2018-07-17 Single Family 2617 Lago Vista Loop Irving, TX 75062 $554,000 3,806 sq. ft. 13,068 sq. ft. $146
2018-07-17 Single Family Traditional 4219 Audubon Lane Irving, TX 75063 $461,000 2,167 sq. ft. 5,663 sq. ft. $213
2018-07-16 Single Family Traditional 3619 Carlsbad Way Irving, TX 75063 $499,000 3,172 sq. ft. 3,920 sq. ft. $157
2018-07-13 Single Family 718 Hilltop Drive Irving, TX 75060 $300,000 1,216 sq. ft. 40,511 sq. ft. $247
2018-07-12 Single Family Traditional 2518 Markland Street Irving, TX 75060 $244,000 1,918 sq. ft. 6,098 sq. ft. $127
2018-07-12 Single Family Traditional 7236 Notre Dame Drive Irving, TX 75063 $740,000 3,800 sq. ft. 5,663 sq. ft. $195
2018-07-12 Single Family Mediterranean 6419 Malaga Irving, TX 75039 $476,000 2,842 sq. ft. 6,098 sq. ft. $167
2018-07-06 Single Family Traditional 6337 Saddlebrook Way Irving, TX 75039 $518,682 2,707 sq. ft. 4,356 sq. ft. $192
2018-07-03 Single Family 206 Wellington Road Irving, TX 75063 $359,900 2,087 sq. ft. 5,227 sq. ft. $172
2018-07-02 Single Family 320 Chandan Way Irving, TX 75063 $589,366 3,782 sq. ft. 6,098 sq. ft. $156
2018-07-02 Single Family 600 Middlefork Irving, TX 75063 $249,000 1,630 sq. ft. 2,614 sq. ft. $153
2018-06-29 Single Family Traditional 675 Flagstone Drive Irving, TX 75039 $769,000 3,845 sq. ft. 7,405 sq. ft. $200
2018-06-29 Single Family Traditional 10022 Stone Harbor Way Irving, TX 75063 $649,000 4,502 sq. ft. 18,731 sq. ft. $144
2018-06-29 Single Family Traditional 120 Alto Vista Drive Irving, TX 75062 $679,900 4,548 sq. ft. 8,712 sq. ft. $149
2018-06-28 Single Family Traditional 5559 Claiborne Court Irving, TX 75039 $589,430 3,520 sq. ft. 5,663 sq. ft. $167
2018-06-28 Single Family Traditional 146 Darbonne Lane Irving, TX 75039 $574,900 3,421 sq. ft. 6,970 sq. ft. $168
2018-06-28 Single Family Traditional 131 Darbonne Lane Irving, TX 75039 $549,900 2,982 sq. ft. 9,148 sq. ft. $184
2018-06-28 Single Family Traditional 122 Darbonne Lane Irving, TX 75039 $599,654 3,421 sq. ft. 7,405 sq. ft. $175
2018-06-27 Single Family Traditional 3218 Luzon Road Irving, TX 75060 $190,000 2,202 sq. ft. 16,988 sq. ft. $86
2018-06-24 Single Family Contemporary/Modern 1603 Cottonwood Valley Circle Irving, TX 75038 $1,050,000 5,458 sq. ft. 14,810 sq. ft. $192
2018-06-23 Single Family Traditional 4159 Napoli Way Irving, TX 75038 $449,900 3,172 sq. ft. 5,663 sq. ft. $142
2018-06-22 Single Family Traditional 7421 Ruston Lane Irving, TX 75063 $529,000 3,715 sq. ft. 9,148 sq. ft. $142
2018-06-20 Single Family 7907 Banyan Way Irving, TX 75063 $598,366 3,613 sq. ft. 6,534 sq. ft. $166
2018-06-19 Single Family Traditional 2036 Remington Drive Irving, TX 75063 $599,900 4,084 sq. ft. 5,227 sq. ft. $147
2018-06-19 Single Family Traditional 1004 Edlin Court Irving, TX 75062 $527,990 3,053 sq. ft. 5,227 sq. ft. $173
2018-06-19 Single Family Traditional 6840 Prompton Bend Irving, TX 75063 $399,990 2,171 sq. ft. 3,920 sq. ft. $184
2018-06-15 Single Family Traditional 647 Whicker Lane Irving, TX 75039 $437,990 2,345 sq. ft. 4,356 sq. ft. $187
2018-06-14 Single Family English; French 2118 Hill Drive Irving, TX 75038 $549,980 4,115 sq. ft. 6,098 sq. ft. $134
2018-06-14 Single Family 319 Ouida Road Irving, TX 75061 $299,900 1,472 sq. ft. 20,038 sq. ft. $204
2018-06-14 Single Family Traditional 3031 Pamela Drive Irving, TX 75062 $199,000 1,245 sq. ft. 7,405 sq. ft. $160
2018-06-13 Single Family Traditional 643 Whicker Lane Irving, TX 75039 $474,000 2,709 sq. ft. 4,356 sq. ft. $175
2018-06-12 Single Family Traditional 200 Castle Court Irving, TX 75038 $315,000 2,381 sq. ft. 15,246 sq. ft. $132
2018-06-11 Single Family Traditional 9401 Blue Jay Way Irving, TX 75063 $339,900 2,545 sq. ft. 5,227 sq. ft. $134
2018-06-10 Single Family Traditional 7215 Sugar Maple Drive Irving, TX 75063 $515,000 3,878 sq. ft. 7,841 sq. ft. $133
2018-06-09 Single Family Traditional 503 Poplar Lane Irving, TX 75063 $369,900 3,062 sq. ft. 6,970 sq. ft. $121
2018-06-03 Single Family 610 Goodyear Street Irving, TX 75062 $346,500 2,859 sq. ft. $121
2018-06-02 Single Family Mediterranean 1307 Travis Circle Irving, TX 75038 $1,595,000 6,454 sq. ft. 16,988 sq. ft. $247
2018-06-02 Single Family Traditional 612 Scenic Drive Irving, TX 75039 $1,050,000 4,882 sq. ft. 10,019 sq. ft. $215
2018-06-01 Single Family Contemporary/Modern; Mediterranean 6712 Barcelona Irving, TX 75039 $759,000 4,370 sq. ft. 7,405 sq. ft. $174
2018-06-01 Single Family Traditional 4774 Byron Circle Irving, TX 75038 $2,200,000 7,096 sq. ft. 27,443 sq. ft. $310
2018-05-31 Single Family Traditional 7908 Pimlico Lane Irving, TX 75063 $528,900 3,195 sq. ft. 5,227 sq. ft. $166
2018-05-24 Single Family Traditional 3331 Ricci Lane Irving, TX 75062 $399,999 3,036 sq. ft. 5,227 sq. ft. $132
2018-05-21 Single Family 1703 Williams Road Irving, TX 75060 $199,000 2,278 sq. ft. 43,560 sq. ft. $87
2018-05-21 Single Family Traditional 7743 La Haye Irving, TX 75063 $629,571 3,500 sq. ft. 6,098 sq. ft. $180
2018-05-21 Single Family Contemporary/Modern 7754 Cooke Irving, TX 75063 $599,814 3,266 sq. ft. 6,534 sq. ft. $184
2018-05-21 Single Family Traditional 7742 Cooke Irving, TX 75063 $592,529 3,160 sq. ft. 5,663 sq. ft. $188
2018-05-21 Single Family Contemporary/Modern 7746 Cooke Irving, TX 75063 $624,525 3,170 sq. ft. 5,663 sq. ft. $197
2018-05-18 Single Family 400 Kosstre Court Irving, TX 75061 $261,000 2,070 sq. ft. 4,356 sq. ft. $126
2018-05-15 Single Family Traditional 616 Scenic Drive Irving, TX 75039 $860,000 4,537 sq. ft. 11,761 sq. ft. $190
2018-05-11 Single Family 3224 Brockbank Drive Irving, TX 75062 $239,900 1,594 sq. ft. 10,890 sq. ft. $150
2018-05-08 Single Family Traditional 3612 Coldstream Drive Irving, TX 75063 $629,990 3,753 sq. ft. 6,098 sq. ft. $168
2018-05-08 Single Family Traditional 7734 Cooke Drive Irving, TX 75063 $619,990 3,480 sq. ft. 6,098 sq. ft. $178
2018-05-08 Single Family Traditional 3608 Coldstream Drive Irving, TX 75063 $549,990 3,190 sq. ft. 6,098 sq. ft. $172
2018-05-08 Single Family Traditional 7729 Cooke Drive Irving, TX 75063 $594,990 3,249 sq. ft. 6,098 sq. ft. $183
2018-05-08 Single Family Traditional 7730 Cooke Drive Irving, TX 75063 $609,990 3,338 sq. ft. 6,098 sq. ft. $183
2018-05-08 Single Family Traditional 7783 La Haye Drive Irving, TX 75063 $624,990 3,648 sq. ft. 6,098 sq. ft. $171
2018-05-08 Single Family Traditional 7779 La Haye Drive Irving, TX 75063 $609,990 3,338 sq. ft. 6,098 sq. ft. $183
2018-05-08 Single Family Traditional 409 Richmond Street Irving, TX 75063 $339,000 2,593 sq. ft. 3,920 sq. ft. $131
2018-05-06 Single Family 6704 Barcelona Irving, TX 75039 $614,000 3,613 sq. ft. 7,405 sq. ft. $170
2018-04-20 Single Family Traditional 3664 Coldstream Irving, TX 75063 $589,715 3,695 sq. ft. 5,663 sq. ft. $160
2018-04-16 Single Family Traditional 3660 Coldstream Irving, TX 75063 $574,810 3,381 sq. ft. 5,663 sq. ft. $170
2018-04-16 Single Family Traditional 7747 Hollow Way Irving, TX 75063 $595,901 3,458 sq. ft. 5,663 sq. ft. $172
2018-04-16 Single Family Traditional 7819 Uxbridge Irving, TX 75063 $607,186 3,381 sq. ft. 5,663 sq. ft. $180
2018-04-13 Single Family Traditional 6779 Palo Duro Drive Irving, TX 75063 $479,900 3,289 sq. ft. 3,920 sq. ft. $146
2018-04-06 Single Family Traditional 1521 Cottonwood Valley Circle Irving, TX 75038 $995,000 5,153 sq. ft. 14,810 sq. ft. $193
2018-03-31 Single Family Tudor 7320 Reverchon Drive Irving, TX 75063 $729,027 4,123 sq. ft. 8,276 sq. ft. $177
2018-03-29 Single Family Traditional 4504 Windsor Ridge Drive Irving, TX 75038 $1,650,000 6,186 sq. ft. 16,988 sq. ft. $267
2018-03-23 Single Family Traditional 6816 Prompton Bend Irving, TX 75063 $482,990 3,206 sq. ft. 3,920 sq. ft. $151
2018-03-19 Single Family 3539 Calico Irving, TX 75038 $479,455 2,962 sq. ft. $162
2018-03-16 Single Family Traditional 1115 Katelyn Court Irving, TX 75060 $362,500 2,650 sq. ft. 6,098 sq. ft. $137
2018-03-16 Single Family Traditional 1308 Katelyn Court Irving, TX 75060 $372,500 2,650 sq. ft. 6,534 sq. ft. $141
2018-03-16 Single Family Traditional 2223 Creekside Circle Irving, TX 75063 $400,000 3,763 sq. ft. 10,019 sq. ft. $106
2018-03-03 Single Family Traditional 311 Jefferson Street Irving, TX 75061 $189,000 1,083 sq. ft. 12,632 sq. ft. $175
2018-02-28 Single Family Traditional 3723 Crosby Street Irving, TX 75038 $430,349 2,623 sq. ft. $164
2018-02-27 Single Family Traditional; Tudor 7316 Reverchon Drive Irving, TX 75063 $699,944 3,777 sq. ft. 7,841 sq. ft. $185
2018-02-27 Single Family Mediterranean 600 Travis Court Irving, TX 75038 $1,040,000 4,922 sq. ft. 16,117 sq. ft. $211
2018-02-27 Single Family French; Traditional 1600 Nelson Drive Irving, TX 75038 $1,999,000 10,157 sq. ft. 34,412 sq. ft. $197
2018-02-27 Single Family Traditional 2600 Avenida Loop Irving, TX 75062 $225,000 2,350 sq. ft. 6,534 sq. ft. $96
2017-11-13 Single Family Mediterranean; Traditional 4412 Windsor Ridge Drive Irving, TX 75038 $1,999,000 9,566 sq. ft. 18,295 sq. ft. $209
2017-10-16 Single Family 3441 Poinsettia Irving, TX 75038 $530,879 3,597 sq. ft. $148
2017-10-16 Single Family 3437 Poinsettia Irving, TX 75038 $500,000 3,124 sq. ft. $160
2017-10-12 Single Family Victorian 318 O Connor Road Irving, TX 75060 $245,000 1,330 sq. ft. 10,454 sq. ft. $184
2017-09-08 Single Family Contemporary/Modern 300 Tampico Street Irving, TX 75062 $879,000 9,636 sq. ft. 31,799 sq. ft. $91